CheckWX is a tool to help pilots better visualize weather data.  It is not intended as a substitute for an official pre-flight weather briefing.

05:10:35 UTC

KAAO METAR
Colonel James Jabara Airport
Wichita, Kansas, USA
Current

17 mins ago

KAAO 180454Z AUTO 16013G21KT 10SM CLR 28/22 A2973 RMK AO2 LTG DSNT N AND NW SLP053 T02830222
Observed
Aug-18 @ 04:54 UTC
Wind
  • 160° at 13 KTS
  • Gusting to 21 KTS
Visibility
10 SM
Flight Rules
VFR
Cloud Levels
  • Clear skies
Temperature
28°C / 82°F
Dewpoint
22°C / 72°F
Heat Index
30°C / 86°F
Humidity
70%
Altimeter
29.73" Hg
Pressure
1006.82 hPa
Previous

1 hour ago

KAAO 180354Z AUTO 15014G23KT 10SM CLR 29/23 A2975 RMK AO2 SLP058 T02890228
Observed
Aug-18 @ 03:54 UTC
Wind
  • 150° at 14 KTS
  • Gusting to 23 KTS
Visibility
10 SM
Flight Rules
VFR
Cloud Levels
  • Clear skies
Temperature
29°C / 84°F
Dewpoint
23°C / 73°F
Heat Index
32°C / 90°F
Humidity
70%
Altimeter
29.75" Hg
Pressure
1007.42 hPa
Previous

2 hours ago

KAAO 180254Z AUTO 14011KT 10SM CLR 28/25 A2974 RMK AO2 SLP055 T02780250 53001
Observed
Aug-18 @ 02:54 UTC
Wind
  • 140° at 11 KTS
Visibility
10 SM
Flight Rules
VFR
Cloud Levels
  • Clear skies
Temperature
28°C / 82°F
Dewpoint
25°C / 77°F
Heat Index
32°C / 90°F
Humidity
84%
Altimeter
29.74" Hg
Pressure
1007.12 hPa